createdAt,value
2024-02-19T00:05:24.551Z,15.52
2024-02-19T00:10:54.656Z,15.95
2024-02-19T00:13:39.859Z,15.63
2024-02-19T00:16:24.982Z,15.43
2024-02-19T00:19:10.813Z,16.60
2024-02-19T00:21:55.589Z,15.93
2024-02-19T00:24:40.736Z,14.80
2024-02-19T00:27:26.476Z,16.15
2024-02-19T00:30:12.168Z,16.17
2024-02-19T00:32:57.489Z,14.88
2024-02-19T00:35:42.164Z,14.05
2024-02-19T00:38:27.065Z,14.32
2024-02-19T00:41:12.890Z,15.63
2024-02-19T00:43:57.652Z,14.93
2024-02-19T00:46:42.694Z,14.10
2024-02-19T00:49:28.037Z,11.73
2024-02-19T00:52:13.203Z,11.85
2024-02-19T00:54:58.398Z,10.90
2024-02-19T00:57:43.473Z,10.75
2024-02-19T01:00:28.622Z,9.38
2024-02-19T01:03:13.905Z,10.00
2024-02-19T01:05:59.166Z,11.00
2024-02-19T01:08:43.902Z,12.00
2024-02-19T01:11:28.991Z,10.10
2024-02-19T01:14:13.854Z,10.93
2024-02-19T01:16:58.815Z,10.15
2024-02-19T01:19:45.493Z,9.52
2024-02-19T01:22:30.735Z,9.50
2024-02-19T01:25:15.818Z,8.02
2024-02-19T01:28:00.789Z,8.77
2024-02-19T01:30:45.937Z,8.82
2024-02-19T01:33:31.540Z,7.30
2024-02-19T01:36:16.693Z,6.30
2024-02-19T01:39:02.122Z,7.18
2024-02-19T01:41:47.160Z,5.70
2024-02-19T01:44:32.354Z,5.60
2024-02-19T01:47:18.529Z,4.00
2024-02-19T01:50:04.415Z,3.70
2024-02-19T01:52:51.496Z,4.07
2024-02-19T01:55:38.288Z,4.25
2024-02-19T01:58:23.550Z,3.60
2024-02-19T02:01:08.636Z,3.53
2024-02-19T02:03:55.031Z,3.50
2024-02-19T02:06:40.442Z,3.42
2024-02-19T02:09:25.519Z,3.33
2024-02-19T02:12:12.058Z,3.55
2024-02-19T02:14:57.196Z,3.17
2024-02-19T02:17:44.247Z,3.60
2024-02-19T02:20:30.904Z,3.20
2024-02-19T02:23:16.575Z,3.53
2024-02-19T02:26:01.435Z,4.03
2024-02-19T02:31:32.550Z,3.05
2024-02-19T02:34:17.696Z,3.38
2024-02-19T02:37:03.057Z,3.42
2024-02-19T02:39:47.858Z,3.13
2024-02-19T02:42:33.799Z,3.00
2024-02-19T02:45:18.885Z,3.13
2024-02-19T02:50:48.938Z,2.22
2024-02-19T02:53:34.092Z,2.40
2024-02-19T02:56:22.687Z,2.45
2024-02-19T02:59:07.468Z,2.72
2024-02-19T03:01:52.723Z,3.08
2024-02-19T03:04:37.579Z,2.53
2024-02-19T03:07:25.219Z,3.58
2024-02-19T03:10:11.876Z,3.60
2024-02-19T03:12:56.911Z,2.70
2024-02-19T03:15:42.021Z,3.05
2024-02-19T03:18:27.421Z,3.17
2024-02-19T03:21:15.988Z,2.78
2024-02-19T03:24:00.817Z,2.88
2024-02-19T03:26:45.754Z,2.72
2024-02-19T03:29:30.876Z,3.08
2024-02-19T03:32:15.774Z,3.03
2024-02-19T03:35:00.948Z,2.67
2024-02-19T03:37:46.943Z,2.78
2024-02-19T03:40:31.504Z,3.35
2024-02-19T03:43:17.708Z,2.92
2024-02-19T03:46:04.835Z,3.15
2024-02-19T03:48:49.881Z,3.38
2024-02-19T03:51:34.771Z,3.05
2024-02-19T03:54:19.680Z,3.38
2024-02-19T03:57:05.243Z,3.35
2024-02-19T03:59:50.554Z,3.00
2024-02-19T04:02:35.663Z,2.83
2024-02-19T04:05:20.680Z,2.97
2024-02-19T04:08:07.299Z,3.13
2024-02-19T04:10:53.765Z,5.05
2024-02-19T04:13:38.719Z,4.28
2024-02-19T04:16:23.458Z,4.90
2024-02-19T04:19:09.290Z,5.18
2024-02-19T04:21:54.429Z,4.50
2024-02-19T04:24:39.854Z,4.13
2024-02-19T04:27:24.674Z,3.83
2024-02-19T04:30:09.849Z,2.90
2024-02-19T04:32:54.572Z,4.63
2024-02-19T04:35:39.529Z,4.70
2024-02-19T04:38:24.574Z,3.58
2024-02-19T04:41:09.217Z,3.10
2024-02-19T04:43:54.213Z,4.20
2024-02-19T04:46:39.638Z,3.45
2024-02-19T04:49:24.770Z,3.95
2024-02-19T04:52:09.672Z,3.40
2024-02-19T04:54:54.571Z,3.97
2024-02-19T04:57:40.634Z,3.25
2024-02-19T05:00:26.770Z,3.78
2024-02-19T05:03:13.027Z,3.67
2024-02-19T05:05:59.634Z,2.83
2024-02-19T05:08:44.992Z,3.80
2024-02-19T05:11:31.009Z,3.20
2024-02-19T05:14:15.883Z,3.88
2024-02-19T05:17:01.145Z,2.95
2024-02-19T05:19:47.029Z,3.15
2024-02-19T05:22:32.244Z,2.90
2024-02-19T05:25:18.602Z,2.45
2024-02-19T05:28:03.922Z,3.00
2024-02-19T05:30:49.271Z,3.15
2024-02-19T05:33:33.942Z,2.88
2024-02-19T05:36:19.003Z,3.65
2024-02-19T05:39:04.988Z,2.97
2024-02-19T05:41:49.828Z,3.55
2024-02-19T05:44:35.200Z,3.13
2024-02-19T05:47:21.208Z,2.88
2024-02-19T05:50:10.196Z,2.58
2024-02-19T05:52:55.570Z,2.83
2024-02-19T05:55:40.700Z,2.63
2024-02-19T05:58:26.040Z,2.97
2024-02-19T06:01:12.253Z,3.00
2024-02-19T06:03:57.407Z,2.53
2024-02-19T06:06:47.164Z,3.05
2024-02-19T06:09:32.321Z,2.78
2024-02-19T06:12:17.505Z,2.70
2024-02-19T06:15:03.480Z,2.72
2024-02-19T06:17:50.273Z,3.10
2024-02-19T06:20:37.500Z,3.67
2024-02-19T06:23:25.375Z,3.70
2024-02-19T06:26:13.201Z,3.85
2024-02-19T06:29:12.150Z,3.85
2024-02-19T06:32:04.322Z,3.35
2024-02-19T06:35:22.252Z,3.28
2024-02-19T06:38:07.730Z,2.88
2024-02-19T06:43:58.415Z,2.90
2024-02-19T06:46:48.522Z,2.90
2024-02-19T06:49:35.165Z,2.95
2024-02-19T06:52:33.206Z,2.90
2024-02-19T06:57:56.785Z,2.88
2024-02-19T07:00:13.091Z,2.90
2024-02-19T07:03:16.500Z,2.97
2024-02-19T07:06:03.784Z,3.10
2024-02-19T07:08:53.571Z,3.72
2024-02-19T07:12:05.541Z,3.70
2024-02-19T07:14:58.693Z,3.67
2024-02-19T07:17:47.150Z,5.47
2024-02-19T07:20:37.120Z,6.03
2024-02-19T07:23:42.260Z,6.13
2024-02-19T07:26:52.533Z,3.90
2024-02-19T07:29:46.186Z,3.20
2024-02-19T07:32:32.109Z,3.05
2024-02-19T07:35:17.566Z,2.53
2024-02-19T07:38:06.474Z,2.30
2024-02-19T07:40:59.789Z,2.40
2024-02-19T07:43:45.874Z,2.20
2024-02-19T07:46:37.958Z,2.10
2024-02-19T07:49:30.122Z,1.90
2024-02-19T07:52:19.510Z,1.80
2024-02-19T07:55:12.112Z,2.00
2024-02-19T07:58:05.094Z,2.00
2024-02-19T08:00:51.593Z,1.60
2024-02-19T08:03:36.857Z,1.83
2024-02-19T08:06:26.744Z,1.50
2024-02-19T08:09:11.978Z,1.30
2024-02-19T08:11:59.275Z,1.20
2024-02-19T08:14:46.991Z,1.45
2024-02-19T08:17:36.421Z,2.90
2024-02-19T08:20:38.194Z,2.08
2024-02-19T08:23:33.264Z,2.03
2024-02-19T08:26:46.849Z,1.30
2024-02-19T08:29:33.149Z,1.60
2024-02-19T08:32:35.305Z,2.42
2024-02-19T08:35:23.444Z,2.35
2024-02-19T08:38:18.801Z,1.85
2024-02-19T08:41:04.313Z,1.83
2024-02-19T08:43:52.655Z,1.70
2024-02-19T08:46:37.992Z,1.40
2024-02-19T08:49:24.946Z,1.70
2024-02-19T08:52:19.841Z,1.95
2024-02-19T08:55:16.387Z,1.63
2024-02-19T08:58:01.890Z,1.60
2024-02-19T09:01:19.632Z,1.20
2024-02-19T09:04:09.210Z,1.30
2024-02-19T09:07:14.979Z,1.25
2024-02-19T09:10:09.352Z,1.92
2024-02-19T09:16:30.793Z,1.52
2024-02-19T09:19:46.819Z,1.45
2024-02-19T09:22:35.944Z,1.38
2024-02-19T09:25:27.962Z,1.30
2024-02-19T09:28:16.478Z,1.30
2024-02-19T09:31:21.764Z,1.40
2024-02-19T09:34:10.382Z,1.30
2024-02-19T09:36:56.083Z,1.38
2024-02-19T09:40:05.379Z,1.20
2024-02-19T09:45:40.736Z,1.30
2024-02-19T09:48:26.845Z,1.20
2024-02-19T09:51:21.662Z,1.13
2024-02-19T09:54:23.454Z,1.40
2024-02-19T09:57:11.106Z,1.15
2024-02-19T10:00:05.676Z,1.30
2024-02-19T10:02:55.345Z,1.33
2024-02-19T10:05:48.526Z,1.30
2024-02-19T10:08:36.103Z,1.60
2024-02-19T10:11:21.210Z,1.25
2024-02-19T10:14:07.039Z,1.30
2024-02-19T10:16:52.820Z,1.50
2024-02-19T10:19:39.219Z,1.60
2024-02-19T10:22:25.237Z,1.60
2024-02-19T10:25:12.631Z,1.40
2024-02-19T10:27:57.722Z,1.40
2024-02-19T10:30:43.756Z,1.42
2024-02-19T10:33:28.616Z,1.70
2024-02-19T10:36:20.342Z,1.52
2024-02-19T10:39:06.157Z,1.50
2024-02-19T10:41:51.213Z,1.98
2024-02-19T10:44:36.565Z,1.52
2024-02-19T10:47:22.474Z,1.48
2024-02-19T10:50:09.130Z,1.40
2024-02-19T10:52:54.450Z,1.50
2024-02-19T10:55:52.996Z,1.50
2024-02-19T10:59:00.160Z,1.55
2024-02-19T11:01:48.683Z,1.45
2024-02-19T11:04:35.282Z,1.40
2024-02-19T11:07:22.115Z,1.35
2024-02-19T11:10:07.877Z,1.40
2024-02-19T11:12:53.972Z,1.50
2024-02-19T11:15:42.839Z,2.17
2024-02-19T11:18:30.676Z,1.70
2024-02-19T11:21:23.721Z,1.70
2024-02-19T11:24:09.473Z,1.45
2024-02-19T11:26:55.917Z,2.03
2024-02-19T11:29:47.485Z,1.40
2024-02-19T11:32:33.469Z,1.20
2024-02-19T11:35:18.299Z,1.55
2024-02-19T11:38:04.217Z,1.55
2024-02-19T11:40:50.812Z,1.60
2024-02-19T11:43:37.066Z,2.22
2024-02-19T11:46:23.037Z,1.52
2024-02-19T11:49:09.484Z,1.08
2024-02-19T11:52:04.997Z,1.40
2024-02-19T11:54:56.026Z,1.50
2024-02-19T11:57:43.651Z,1.30
2024-02-19T12:00:33.180Z,1.70
2024-02-19T12:03:18.322Z,1.30
2024-02-19T12:06:03.930Z,1.63
2024-02-19T12:08:49.764Z,1.40
2024-02-19T12:11:36.666Z,1.50
2024-02-19T12:14:21.912Z,2.03
2024-02-19T12:17:07.822Z,3.60
2024-02-19T12:19:57.036Z,1.50
2024-02-19T12:22:42.784Z,3.05
2024-02-19T12:25:27.693Z,4.30
2024-02-19T12:28:12.934Z,2.30
2024-02-19T12:30:57.706Z,1.75
2024-02-19T12:33:43.475Z,1.60
2024-02-19T12:36:28.701Z,1.80
2024-02-19T12:39:32.494Z,1.50
2024-02-19T12:42:17.930Z,1.80
2024-02-19T12:45:06.208Z,1.63
2024-02-19T12:47:52.956Z,1.73
2024-02-19T12:50:37.852Z,1.70
2024-02-19T12:53:22.608Z,1.95
2024-02-19T12:56:07.837Z,1.90
2024-02-19T12:58:52.446Z,2.00
2024-02-19T13:01:37.765Z,2.08
2024-02-19T13:04:26.250Z,2.20
2024-02-19T13:07:15.770Z,2.45
2024-02-19T13:10:01.000Z,1.80
2024-02-19T13:12:45.836Z,2.10
2024-02-19T13:15:30.732Z,1.60
2024-02-19T13:18:15.665Z,2.00
2024-02-19T13:21:00.638Z,1.90
2024-02-19T13:23:45.740Z,2.33
2024-02-19T13:26:30.579Z,2.40
2024-02-19T13:29:16.206Z,3.03
2024-02-19T13:32:01.400Z,2.30
2024-02-19T13:34:46.370Z,2.35
2024-02-19T13:37:31.342Z,2.30
2024-02-19T13:40:16.446Z,2.88
2024-02-19T13:43:01.869Z,2.60
2024-02-19T13:46:01.372Z,2.40
2024-02-19T13:48:58.405Z,2.33
2024-02-19T13:51:43.456Z,2.15
2024-02-19T13:54:28.872Z,2.30
2024-02-19T13:57:14.211Z,2.10
2024-02-19T13:59:59.848Z,2.38
2024-02-19T14:02:45.067Z,2.30
2024-02-19T14:05:31.629Z,2.35
2024-02-19T14:08:17.907Z,2.63
2024-02-19T14:11:02.983Z,3.15
2024-02-19T14:13:55.029Z,2.53
2024-02-19T14:16:46.388Z,2.38
2024-02-19T14:19:31.363Z,2.97
2024-02-19T14:22:16.347Z,3.97
2024-02-19T14:25:01.584Z,3.60
2024-02-19T14:27:47.141Z,2.53
2024-02-19T14:30:32.567Z,2.78
2024-02-19T14:33:17.658Z,2.45
2024-02-19T14:36:02.978Z,2.00
2024-02-19T14:38:48.232Z,2.35
2024-02-19T14:41:33.179Z,2.42
2024-02-19T14:44:17.938Z,2.70
2024-02-19T14:47:07.069Z,3.33
2024-02-19T14:49:52.647Z,3.50
2024-02-19T14:52:37.794Z,3.58
2024-02-19T14:55:22.630Z,3.33
2024-02-19T14:58:08.245Z,3.17
2024-02-19T15:00:53.518Z,4.18
2024-02-19T15:03:38.529Z,4.93
2024-02-19T15:06:23.540Z,4.75
2024-02-19T15:09:09.913Z,3.88
2024-02-19T15:11:54.752Z,4.38
2024-02-19T15:14:40.542Z,3.38
2024-02-19T15:17:26.352Z,4.05
2024-02-19T15:20:12.582Z,4.20
2024-02-19T15:22:58.184Z,3.17
2024-02-19T15:25:43.315Z,3.20
2024-02-19T15:28:28.450Z,2.63
2024-02-19T15:31:14.063Z,2.58
2024-02-19T15:33:59.418Z,2.90
2024-02-19T15:36:44.434Z,4.93
2024-02-19T15:39:31.101Z,3.42
2024-02-19T15:42:15.957Z,2.83
2024-02-19T15:45:00.824Z,3.90
2024-02-19T15:47:46.366Z,3.58
2024-02-19T15:50:32.953Z,3.00
2024-02-19T15:53:24.783Z,3.05
2024-02-19T15:56:14.008Z,3.35
2024-02-19T15:58:58.685Z,3.83
2024-02-19T16:01:45.249Z,4.90
2024-02-19T16:04:30.649Z,6.65
2024-02-19T16:07:15.790Z,4.93
2024-02-19T16:10:00.771Z,3.28
2024-02-19T16:15:32.520Z,2.55
2024-02-19T16:18:29.157Z,3.13
2024-02-19T16:21:41.399Z,2.80
2024-02-19T16:24:40.580Z,3.13
2024-02-19T16:27:36.077Z,4.07
2024-02-19T16:30:21.086Z,3.45
2024-02-19T16:35:51.449Z,3.00
2024-02-19T16:38:41.654Z,3.22
2024-02-19T16:41:26.665Z,4.20
2024-02-19T16:44:11.754Z,5.80
2024-02-19T16:49:44.127Z,5.90
2024-02-19T16:52:29.256Z,4.10
2024-02-19T16:57:59.509Z,5.30
2024-02-19T17:00:47.575Z,2.55
2024-02-19T17:03:33.046Z,2.58
2024-02-19T17:06:17.909Z,4.18
2024-02-19T17:11:50.719Z,3.53
2024-02-19T17:17:20.137Z,5.07
2024-02-19T17:20:05.936Z,4.57
2024-02-19T17:22:51.898Z,4.55
2024-02-19T17:25:37.260Z,4.90
2024-02-19T17:28:22.894Z,4.38
2024-02-19T17:31:08.835Z,3.45
2024-02-19T17:33:54.092Z,2.90
2024-02-19T17:39:26.684Z,2.65
2024-02-19T17:42:11.499Z,3.88
2024-02-19T17:44:56.815Z,4.80
2024-02-19T17:50:26.672Z,6.82
2024-02-19T17:53:12.275Z,12.07
2024-02-19T17:58:42.314Z,9.40
2024-02-19T18:01:27.497Z,6.93
2024-02-19T18:04:13.006Z,3.22
2024-02-19T18:07:00.787Z,3.53
2024-02-19T18:09:45.402Z,4.05
2024-02-19T18:12:30.490Z,4.18
2024-02-19T18:18:06.553Z,6.00
2024-02-19T18:20:52.219Z,4.90
2024-02-19T18:23:37.481Z,6.55
2024-02-19T18:26:24.553Z,5.63
2024-02-19T18:29:14.679Z,3.83
2024-02-19T18:32:01.071Z,4.00
2024-02-19T18:34:47.158Z,3.58
2024-02-19T18:37:32.307Z,5.43
2024-02-19T18:43:03.033Z,3.78
2024-02-19T18:45:48.183Z,4.00
2024-02-19T18:48:34.827Z,3.17
2024-02-19T18:51:19.568Z,3.10
2024-02-19T18:54:04.595Z,2.97
2024-02-19T18:59:37.388Z,3.35
2024-02-19T19:02:22.359Z,7.50
2024-02-19T19:05:07.622Z,9.80
2024-02-19T19:07:53.015Z,5.32
2024-02-19T19:10:37.929Z,6.50
2024-02-19T19:16:08.144Z,4.93
2024-02-19T19:21:38.395Z,5.18
2024-02-19T19:24:23.530Z,5.30
2024-02-19T19:29:54.088Z,3.78
2024-02-19T19:32:39.793Z,3.13
2024-02-19T19:35:27.182Z,3.03
2024-02-19T19:38:12.502Z,2.95
2024-02-19T19:40:57.671Z,2.95
2024-02-19T19:43:42.667Z,3.70
2024-02-19T19:46:27.845Z,2.97
2024-02-19T19:49:17.174Z,3.58
2024-02-19T19:52:02.025Z,2.90
2024-02-19T19:54:47.424Z,2.67
2024-02-19T19:57:32.440Z,3.03
2024-02-19T20:00:20.783Z,2.35
2024-02-19T20:03:06.062Z,2.92
2024-02-19T20:05:51.360Z,2.83
2024-02-19T20:08:36.339Z,3.00
2024-02-19T20:14:07.452Z,3.05
2024-02-19T20:19:37.481Z,2.92
2024-02-19T20:22:22.367Z,2.90
2024-02-19T20:27:54.323Z,2.60
2024-02-19T20:30:39.354Z,2.75
2024-02-19T20:33:24.442Z,2.60
2024-02-19T20:38:57.451Z,3.10
2024-02-19T20:41:43.336Z,2.85
2024-02-19T20:44:28.076Z,2.78
2024-02-19T20:47:13.703Z,3.85
2024-02-19T20:50:00.310Z,7.53
2024-02-19T20:52:46.352Z,8.43
2024-02-19T20:55:31.529Z,5.68
2024-02-19T21:01:02.584Z,6.13
2024-02-19T21:03:50.065Z,7.07
2024-02-19T21:06:35.509Z,5.32
2024-02-19T21:09:21.275Z,8.05
2024-02-19T21:12:07.376Z,6.70
2024-02-19T21:14:52.343Z,6.90
2024-02-19T21:17:37.312Z,6.30
2024-02-19T21:20:22.284Z,7.18
2024-02-19T21:25:52.381Z,6.18
2024-02-19T21:28:37.342Z,7.13
2024-02-19T21:31:22.208Z,7.55
2024-02-19T21:34:10.483Z,6.15
2024-02-19T21:36:58.127Z,6.60
2024-02-19T21:39:43.882Z,6.03
2024-02-19T21:42:29.804Z,6.13
2024-02-19T21:45:16.756Z,5.80
2024-02-19T21:48:01.800Z,6.05
2024-02-19T21:50:46.314Z,5.40
2024-02-19T21:53:31.478Z,6.13
2024-02-19T21:59:01.620Z,5.72
2024-02-19T22:01:46.608Z,5.53
2024-02-19T22:04:31.685Z,6.90
2024-02-19T22:07:16.253Z,5.85
2024-02-19T22:10:03.554Z,6.95
2024-02-19T22:12:48.990Z,6.38
2024-02-19T22:15:33.836Z,6.70
2024-02-19T22:18:19.605Z,6.40
2024-02-19T22:21:04.949Z,6.65
2024-02-19T22:23:50.021Z,6.80
2024-02-19T22:26:34.894Z,8.30
2024-02-19T22:29:19.851Z,6.95
2024-02-19T22:32:06.117Z,6.50
2024-02-19T22:34:51.185Z,7.25
2024-02-19T22:37:36.605Z,7.35
2024-02-19T22:40:21.551Z,6.82
2024-02-19T22:45:54.425Z,5.90
2024-02-19T22:48:39.338Z,6.53
2024-02-19T22:51:24.245Z,7.38
2024-02-19T22:54:12.241Z,6.68
2024-02-19T22:56:57.960Z,6.80
2024-02-19T22:59:43.919Z,7.25
2024-02-19T23:02:28.576Z,6.88
2024-02-19T23:05:14.471Z,6.82
2024-02-19T23:08:02.381Z,6.53
2024-02-19T23:10:47.172Z,6.90
2024-02-19T23:13:32.164Z,6.38
2024-02-19T23:19:01.995Z,6.68
2024-02-19T23:24:31.631Z,6.47
2024-02-19T23:27:16.779Z,6.72
2024-02-19T23:32:47.657Z,6.20
2024-02-19T23:35:33.674Z,6.75
2024-02-19T23:38:20.900Z,6.55
2024-02-19T23:41:06.380Z,6.60
2024-02-19T23:46:35.971Z,5.97
2024-02-19T23:49:21.063Z,6.72
2024-02-19T23:52:06.371Z,6.63
2024-02-19T23:57:38.033Z,6.00
